sensor_id;sensor_type;location;lat;lon;timestamp;temperature;humidity
9925;DHT22;5001;51.674;7.868;2022-09-09T00:04:29;17.50;1.00
9925;DHT22;5001;51.674;7.868;2022-09-09T00:12:39;16.70;99.10
9925;DHT22;5001;51.674;7.868;2022-09-09T00:15:12;16.50;99.90
9925;DHT22;5001;51.674;7.868;2022-09-09T00:17:46;16.60;99.90
9925;DHT22;5001;51.674;7.868;2022-09-09T00:20:35;16.50;99.90
9925;DHT22;5001;51.674;7.868;2022-09-09T00:23:14;16.50;99.90
9925;DHT22;5001;51.674;7.868;2022-09-09T00:28:26;16.30;99.90
9925;DHT22;5001;51.674;7.868;2022-09-09T00:30:56;16.10;1.00
9925;DHT22;5001;51.674;7.868;2022-09-09T00:33:26;16.10;1.00
9925;DHT22;5001;51.674;7.868;2022-09-09T00:35:56;16.00;1.00
9925;DHT22;5001;51.674;7.868;2022-09-09T00:41:00;16.10;1.00
9925;DHT22;5001;51.674;7.868;2022-09-09T00:43:31;16.10;1.00
9925;DHT22;5001;51.674;7.868;2022-09-09T00:54:21;15.80;1.00
9925;DHT22;5001;51.674;7.868;2022-09-09T00:59:48;15.70;99.90
9925;DHT22;5001;51.674;7.868;2022-09-09T01:08:08;15.40;99.90
9925;DHT22;5001;51.674;7.868;2022-09-09T01:10:52;15.20;99.90
9925;DHT22;5001;51.674;7.868;2022-09-09T01:13:30;15.10;1.00
9925;DHT22;5001;51.674;7.868;2022-09-09T01:16:03;15.00;1.00
9925;DHT22;5001;51.674;7.868;2022-09-09T01:18:36;15.00;1.00
9925;DHT22;5001;51.674;7.868;2022-09-09T01:21:09;14.90;1.00
9925;DHT22;5001;51.674;7.868;2022-09-09T01:27:12;14.90;79.30
9925;DHT22;5001;51.674;7.868;2022-09-09T01:29:40;14.90;99.90
9925;DHT22;5001;51.674;7.868;2022-09-09T01:32:44;15.00;65.90
9925;DHT22;5001;51.674;7.868;2022-09-09T01:37:56;14.90;99.90
9925;DHT22;5001;51.674;7.868;2022-09-09T01:40:25;14.90;99.90
9925;DHT22;5001;51.674;7.868;2022-09-09T01:42:53;14.90;99.90
9925;DHT22;5001;51.674;7.868;2022-09-09T01:45:22;14.80;99.90
9925;DHT22;5001;51.674;7.868;2022-09-09T01:47:52;14.80;1.00
9925;DHT22;5001;51.674;7.868;2022-09-09T01:50:27;14.70;99.90
9925;DHT22;5001;51.674;7.868;2022-09-09T01:52:58;14.70;1.00
9925;DHT22;5001;51.674;7.868;2022-09-09T02:01:02;14.80;1.00
9925;DHT22;5001;51.674;7.868;2022-09-09T02:03:32;14.70;99.90
9925;DHT22;5001;51.674;7.868;2022-09-09T02:08:55;14.60;1.00
9925;DHT22;5001;51.674;7.868;2022-09-09T02:11:27;14.50;1.00
9925;DHT22;5001;51.674;7.868;2022-09-09T02:14:14;14.50;1.00
9925;DHT22;5001;51.674;7.868;2022-09-09T02:16:55;14.40;1.00
9925;DHT22;5001;51.674;7.868;2022-09-09T02:19:42;14.40;87.50
9925;DHT22;5001;51.674;7.868;2022-09-09T02:22:22;14.40;99.90
9925;DHT22;5001;51.674;7.868;2022-09-09T02:24:52;14.30;99.90
9925;DHT22;5001;51.674;7.868;2022-09-09T02:27:25;14.40;99.90
9925;DHT22;5001;51.674;7.868;2022-09-09T02:29:54;14.40;99.90
9925;DHT22;5001;51.674;7.868;2022-09-09T02:32:37;14.50;14.40
9925;DHT22;5001;51.674;7.868;2022-09-09T02:35:13;14.50;1.00
9925;DHT22;5001;51.674;7.868;2022-09-09T02:37:44;14.50;1.00
9925;DHT22;5001;51.674;7.868;2022-09-09T02:40:15;14.50;1.00
9925;DHT22;5001;51.674;7.868;2022-09-09T02:42:48;14.60;1.00
9925;DHT22;5001;51.674;7.868;2022-09-09T02:45:20;14.70;1.00
9925;DHT22;5001;51.674;7.868;2022-09-09T02:50:43;14.80;1.00
9925;DHT22;5001;51.674;7.868;2022-09-09T02:53:23;14.90;1.00
9925;DHT22;5001;51.674;7.868;2022-09-09T02:56:03;14.90;1.00
9925;DHT22;5001;51.674;7.868;2022-09-09T02:58:34;14.90;99.90
9925;DHT22;5001;51.674;7.868;2022-09-09T03:01:04;15.00;99.90
9925;DHT22;5001;51.674;7.868;2022-09-09T03:03:31;14.90;99.90
9925;DHT22;5001;51.674;7.868;2022-09-09T03:06:03;15.00;99.90
9925;DHT22;5001;51.674;7.868;2022-09-09T03:08:32;15.00;99.90
9925;DHT22;5001;51.674;7.868;2022-09-09T03:11:00;15.00;99.90
9925;DHT22;5001;51.674;7.868;2022-09-09T03:13:31;15.00;99.90
9925;DHT22;5001;51.674;7.868;2022-09-09T03:15:58;15.00;99.90
9925;DHT22;5001;51.674;7.868;2022-09-09T03:18:26;15.00;99.90
9925;DHT22;5001;51.674;7.868;2022-09-09T03:20:54;15.00;99.90
9925;DHT22;5001;51.674;7.868;2022-09-09T03:23:22;15.00;99.90
9925;DHT22;5001;51.674;7.868;2022-09-09T03:25:50;15.10;99.90
9925;DHT22;5001;51.674;7.868;2022-09-09T03:28:25;15.10;12.80
9925;DHT22;5001;51.674;7.868;2022-09-09T03:31:00;15.10;59.30
9925;DHT22;5001;51.674;7.868;2022-09-09T03:33:31;15.10;1.00
9925;DHT22;5001;51.674;7.868;2022-09-09T03:35:58;15.20;1.00
9925;DHT22;5001;51.674;7.868;2022-09-09T03:38:25;15.10;8.70
9925;DHT22;5001;51.674;7.868;2022-09-09T03:40:54;15.10;1.00
9925;DHT22;5001;51.674;7.868;2022-09-09T03:43:24;15.10;1.00
9925;DHT22;5001;51.674;7.868;2022-09-09T03:45:52;15.10;1.00
9925;DHT22;5001;51.674;7.868;2022-09-09T03:48:20;15.10;1.00
9925;DHT22;5001;51.674;7.868;2022-09-09T03:50:48;15.10;35.30
9925;DHT22;5001;51.674;7.868;2022-09-09T03:53:16;15.20;33.80
9925;DHT22;5001;51.674;7.868;2022-09-09T03:55:45;15.10;99.90
9925;DHT22;5001;51.674;7.868;2022-09-09T03:58:14;15.10;41.70
9925;DHT22;5001;51.674;7.868;2022-09-09T04:00:42;15.10;1.00
9925;DHT22;5001;51.674;7.868;2022-09-09T04:03:10;15.00;1.00
9925;DHT22;5001;51.674;7.868;2022-09-09T04:05:39;15.10;1.00
9925;DHT22;5001;51.674;7.868;2022-09-09T04:08:07;15.10;1.00
9925;DHT22;5001;51.674;7.868;2022-09-09T04:10:35;15.10;1.00
9925;DHT22;5001;51.674;7.868;2022-09-09T04:13:05;15.20;99.90
9925;DHT22;5001;51.674;7.868;2022-09-09T04:15:32;15.20;99.90
9925;DHT22;5001;51.674;7.868;2022-09-09T04:18:00;15.30;1.00
9925;DHT22;5001;51.674;7.868;2022-09-09T04:20:27;15.20;99.90
9925;DHT22;5001;51.674;7.868;2022-09-09T04:22:54;15.30;99.90
9925;DHT22;5001;51.674;7.868;2022-09-09T04:25:21;15.30;99.90
9925;DHT22;5001;51.674;7.868;2022-09-09T04:27:54;15.30;1.00
9925;DHT22;5001;51.674;7.868;2022-09-09T04:30:21;15.40;99.90
9925;DHT22;5001;51.674;7.868;2022-09-09T04:32:49;15.40;99.90
9925;DHT22;5001;51.674;7.868;2022-09-09T04:35:16;15.40;40.50
9925;DHT22;5001;51.674;7.868;2022-09-09T04:37:43;15.50;97.70
9925;DHT22;5001;51.674;7.868;2022-09-09T04:40:11;15.50;99.90
9925;DHT22;5001;51.674;7.868;2022-09-09T04:42:38;15.50;99.90
9925;DHT22;5001;51.674;7.868;2022-09-09T04:45:06;15.40;99.90
9925;DHT22;5001;51.674;7.868;2022-09-09T04:47:33;15.40;60.70
9925;DHT22;5001;51.674;7.868;2022-09-09T04:50:02;15.50;1.00
9925;DHT22;5001;51.674;7.868;2022-09-09T04:52:29;15.50;1.00
9925;DHT22;5001;51.674;7.868;2022-09-09T04:54:57;15.60;1.00
9925;DHT22;5001;51.674;7.868;2022-09-09T04:57:24;15.60;1.00
9925;DHT22;5001;51.674;7.868;2022-09-09T04:59:51;15.60;1.00
9925;DHT22;5001;51.674;7.868;2022-09-09T05:02:18;15.70;1.00
9925;DHT22;5001;51.674;7.868;2022-09-09T05:04:45;15.70;1.00
9925;DHT22;5001;51.674;7.868;2022-09-09T05:07:12;15.70;1.00
9925;DHT22;5001;51.674;7.868;2022-09-09T05:09:41;15.70;1.00
9925;DHT22;5001;51.674;7.868;2022-09-09T05:12:09;15.80;1.00
9925;DHT22;5001;51.674;7.868;2022-09-09T05:14:40;15.80;1.00
9925;DHT22;5001;51.674;7.868;2022-09-09T05:17:07;15.80;1.00
9925;DHT22;5001;51.674;7.868;2022-09-09T05:19:36;15.90;1.00
9925;DHT22;5001;51.674;7.868;2022-09-09T05:22:03;15.90;1.00
9925;DHT22;5001;51.674;7.868;2022-09-09T05:24:39;16.00;99.90
9925;DHT22;5001;51.674;7.868;2022-09-09T05:27:07;16.00;1.00
9925;DHT22;5001;51.674;7.868;2022-09-09T05:29:33;16.00;1.00
9925;DHT22;5001;51.674;7.868;2022-09-09T05:32:03;16.00;1.00
9925;DHT22;5001;51.674;7.868;2022-09-09T05:34:30;16.00;1.00
9925;DHT22;5001;51.674;7.868;2022-09-09T05:36:57;16.00;1.00
9925;DHT22;5001;51.674;7.868;2022-09-09T05:39:25;16.00;1.00
9925;DHT22;5001;51.674;7.868;2022-09-09T05:41:53;16.00;1.00
9925;DHT22;5001;51.674;7.868;2022-09-09T05:44:21;16.10;1.00
9925;DHT22;5001;51.674;7.868;2022-09-09T05:46:50;16.00;1.00
9925;DHT22;5001;51.674;7.868;2022-09-09T05:49:17;16.00;1.00
9925;DHT22;5001;51.674;7.868;2022-09-09T05:51:44;16.10;1.00
9925;DHT22;5001;51.674;7.868;2022-09-09T05:54:13;16.10;1.00
9925;DHT22;5001;51.674;7.868;2022-09-09T05:56:45;16.20;99.90
9925;DHT22;5001;51.674;7.868;2022-09-09T05:59:17;16.20;99.90
9925;DHT22;5001;51.674;7.868;2022-09-09T06:01:45;16.30;99.90
9925;DHT22;5001;51.674;7.868;2022-09-09T06:04:23;16.40;99.90
9925;DHT22;5001;51.674;7.868;2022-09-09T06:06:52;16.40;99.90
9925;DHT22;5001;51.674;7.868;2022-09-09T06:09:21;16.40;99.90
9925;DHT22;5001;51.674;7.868;2022-09-09T06:11:48;16.40;99.90
9925;DHT22;5001;51.674;7.868;2022-09-09T06:14:15;16.40;99.90
9925;DHT22;5001;51.674;7.868;2022-09-09T06:16:48;16.40;99.90
9925;DHT22;5001;51.674;7.868;2022-09-09T06:19:21;16.40;99.90
9925;DHT22;5001;51.674;7.868;2022-09-09T06:21:48;16.40;99.90
9925;DHT22;5001;51.674;7.868;2022-09-09T06:24:15;16.40;99.90
9925;DHT22;5001;51.674;7.868;2022-09-09T06:26:44;16.40;99.90
9925;DHT22;5001;51.674;7.868;2022-09-09T06:29:16;16.40;99.90
9925;DHT22;5001;51.674;7.868;2022-09-09T06:31:44;16.40;99.90
9925;DHT22;5001;51.674;7.868;2022-09-09T06:34:22;16.40;1.00
9925;DHT22;5001;51.674;7.868;2022-09-09T06:36:54;16.40;99.90
9925;DHT22;5001;51.674;7.868;2022-09-09T06:39:26;16.50;99.90
9925;DHT22;5001;51.674;7.868;2022-09-09T06:41:54;16.50;99.90
9925;DHT22;5001;51.674;7.868;2022-09-09T06:44:39;16.50;99.90
9925;DHT22;5001;51.674;7.868;2022-09-09T06:47:11;16.60;99.90
9925;DHT22;5001;51.674;7.868;2022-09-09T06:49:39;16.80;21.90
9925;DHT22;5001;51.674;7.868;2022-09-09T06:52:09;16.80;1.00
9925;DHT22;5001;51.674;7.868;2022-09-09T06:54:36;17.00;1.00
9925;DHT22;5001;51.674;7.868;2022-09-09T06:57:04;17.30;1.00
9925;DHT22;5001;51.674;7.868;2022-09-09T06:59:54;17.50;1.00
9925;DHT22;5001;51.674;7.868;2022-09-09T07:02:21;17.60;99.90
9925;DHT22;5001;51.674;7.868;2022-09-09T07:04:48;17.90;99.90
9925;DHT22;5001;51.674;7.868;2022-09-09T07:07:17;17.90;99.90
9925;DHT22;5001;51.674;7.868;2022-09-09T07:09:44;17.90;99.90
9925;DHT22;5001;51.674;7.868;2022-09-09T07:12:13;18.10;99.90
9925;DHT22;5001;51.674;7.868;2022-09-09T07:14:47;18.10;99.90
9925;DHT22;5001;51.674;7.868;2022-09-09T07:17:14;18.10;99.90
9925;DHT22;5001;51.674;7.868;2022-09-09T07:19:41;18.10;99.90
9925;DHT22;5001;51.674;7.868;2022-09-09T07:22:09;17.90;99.90
9925;DHT22;5001;51.674;7.868;2022-09-09T07:24:37;17.80;99.90
9925;DHT22;5001;51.674;7.868;2022-09-09T07:27:06;17.80;99.90
9925;DHT22;5001;51.674;7.868;2022-09-09T07:29:34;17.80;99.90
9925;DHT22;5001;51.674;7.868;2022-09-09T07:32:02;17.90;99.90
9925;DHT22;5001;51.674;7.868;2022-09-09T07:34:34;18.00;99.90
9925;DHT22;5001;51.674;7.868;2022-09-09T07:37:01;18.30;1.10
9925;DHT22;5001;51.674;7.868;2022-09-09T07:39:29;18.50;1.00
9925;DHT22;5001;51.674;7.868;2022-09-09T07:41:56;18.60;1.00
9925;DHT22;5001;51.674;7.868;2022-09-09T07:44:26;18.80;1.00
9925;DHT22;5001;51.674;7.868;2022-09-09T07:47:02;19.40;1.00
9925;DHT22;5001;51.674;7.868;2022-09-09T07:49:34;19.00;1.00
9925;DHT22;5001;51.674;7.868;2022-09-09T07:52:03;19.20;1.00
9925;DHT22;5001;51.674;7.868;2022-09-09T07:54:31;18.90;1.00
9925;DHT22;5001;51.674;7.868;2022-09-09T07:57:03;18.50;1.00
9925;DHT22;5001;51.674;7.868;2022-09-09T07:59:33;18.70;1.00
9925;DHT22;5001;51.674;7.868;2022-09-09T08:02:00;18.70;1.00
9925;DHT22;5001;51.674;7.868;2022-09-09T08:04:30;18.50;1.00
9925;DHT22;5001;51.674;7.868;2022-09-09T08:06:59;18.60;1.00
9925;DHT22;5001;51.674;7.868;2022-09-09T08:09:29;18.70;1.00
9925;DHT22;5001;51.674;7.868;2022-09-09T08:12:08;18.70;1.00
9925;DHT22;5001;51.674;7.868;2022-09-09T08:14:36;19.70;1.00
9925;DHT22;5001;51.674;7.868;2022-09-09T08:17:03;19.90;99.90
9925;DHT22;5001;51.674;7.868;2022-09-09T08:19:31;20.40;99.90
9925;DHT22;5001;51.674;7.868;2022-09-09T08:22:06;22.20;99.90
9925;DHT22;5001;51.674;7.868;2022-09-09T08:24:35;24.40;47.20
9925;DHT22;5001;51.674;7.868;2022-09-09T08:27:02;23.30;24.90
9925;DHT22;5001;51.674;7.868;2022-09-09T08:29:30;24.00;24.30
9925;DHT22;5001;51.674;7.868;2022-09-09T08:31:58;21.70;95.50
9925;DHT22;5001;51.674;7.868;2022-09-09T08:34:26;23.60;31.00
9925;DHT22;5001;51.674;7.868;2022-09-09T08:36:57;26.40;3.30
9925;DHT22;5001;51.674;7.868;2022-09-09T08:39:30;25.40;1.00
9925;DHT22;5001;51.674;7.868;2022-09-09T08:50:35;22.00;99.90
9925;DHT22;5001;51.674;7.868;2022-09-09T08:56:02;25.80;1.00
9925;DHT22;5001;51.674;7.868;2022-09-09T08:58:47;23.70;1.00
9925;DHT22;5001;51.674;7.868;2022-09-09T09:01:39;23.20;13.90
9925;DHT22;5001;51.674;7.868;2022-09-09T09:12:30;22.60;50.20
9925;DHT22;5001;51.674;7.868;2022-09-09T09:14:59;23.50;21.40
9925;DHT22;5001;51.674;7.868;2022-09-09T09:17:28;22.90;27.40
9925;DHT22;5001;51.674;7.868;2022-09-09T09:19:59;22.00;72.00
9925;DHT22;5001;51.674;7.868;2022-09-09T09:22:50;22.30;62.90
9925;DHT22;5001;51.674;7.868;2022-09-09T09:25:23;22.40;39.20
9925;DHT22;5001;51.674;7.868;2022-09-09T09:28:01;23.70;2.80
9925;DHT22;5001;51.674;7.868;2022-09-09T09:30:40;23.40;17.90
9925;DHT22;5001;51.674;7.868;2022-09-09T09:36:07;24.10;1.00
9925;DHT22;5001;51.674;7.868;2022-09-09T09:38:37;24.00;1.00
9925;DHT22;5001;51.674;7.868;2022-09-09T09:44:03;24.10;1.00
9925;DHT22;5001;51.674;7.868;2022-09-09T09:46:31;23.20;1.00
9925;DHT22;5001;51.674;7.868;2022-09-09T09:49:09;24.10;1.00
9925;DHT22;5001;51.674;7.868;2022-09-09T09:51:38;24.00;1.00
9925;DHT22;5001;51.674;7.868;2022-09-09T09:56:54;23.90;1.00
9925;DHT22;5001;51.674;7.868;2022-09-09T10:04:39;25.00;1.00
9925;DHT22;5001;51.674;7.868;2022-09-09T10:07:19;24.20;1.00
9925;DHT22;5001;51.674;7.868;2022-09-09T10:09:55;24.90;1.00
9925;DHT22;5001;51.674;7.868;2022-09-09T10:12:36;25.30;1.00
9925;DHT22;5001;51.674;7.868;2022-09-09T10:18:45;29.40;1.00
9925;DHT22;5001;51.674;7.868;2022-09-09T10:35:35;25.10;1.00
9925;DHT22;5001;51.674;7.868;2022-09-09T10:38:12;26.90;1.00
9925;DHT22;5001;51.674;7.868;2022-09-09T10:52:14;23.90;1.00
9925;DHT22;5001;51.674;7.868;2022-09-09T10:57:36;23.50;1.00
9925;DHT22;5001;51.674;7.868;2022-09-09T11:00:13;23.00;1.00
9925;DHT22;5001;51.674;7.868;2022-09-09T11:02:41;23.10;1.00
9925;DHT22;5001;51.674;7.868;2022-09-09T11:05:24;24.20;1.00
9925;DHT22;5001;51.674;7.868;2022-09-09T11:11:21;24.90;1.00
9925;DHT22;5001;51.674;7.868;2022-09-09T11:18:50;23.70;1.00
9925;DHT22;5001;51.674;7.868;2022-09-09T11:21:31;23.20;1.00
9925;DHT22;5001;51.674;7.868;2022-09-09T11:24:10;24.60;1.00
9925;DHT22;5001;51.674;7.868;2022-09-09T11:26:47;25.40;1.00
9925;DHT22;5001;51.674;7.868;2022-09-09T11:40:31;23.70;1.00
9925;DHT22;5001;51.674;7.868;2022-09-09T11:43:13;24.10;1.00
9925;DHT22;5001;51.674;7.868;2022-09-09T11:45:42;24.60;1.00
9925;DHT22;5001;51.674;7.868;2022-09-09T11:48:35;24.50;1.00
9925;DHT22;5001;51.674;7.868;2022-09-09T11:51:11;24.20;1.00
9925;DHT22;5001;51.674;7.868;2022-09-09T11:53:54;25.00;1.00
9925;DHT22;5001;51.674;7.868;2022-09-09T11:56:54;24.70;1.00
9925;DHT22;5001;51.674;7.868;2022-09-09T11:59:27;23.70;1.00
9925;DHT22;5001;51.674;7.868;2022-09-09T12:02:02;24.00;1.00
9925;DHT22;5001;51.674;7.868;2022-09-09T12:04:41;25.50;1.00
9925;DHT22;5001;51.674;7.868;2022-09-09T12:12:29;23.20;1.00
9925;DHT22;5001;51.674;7.868;2022-09-09T12:17:57;23.90;1.00
9925;DHT22;5001;51.674;7.868;2022-09-09T12:20:38;23.70;1.00
9925;DHT22;5001;51.674;7.868;2022-09-09T12:23:22;24.20;1.00
9925;DHT22;5001;51.674;7.868;2022-09-09T12:26:25;25.00;1.00
9925;DHT22;5001;51.674;7.868;2022-09-09T12:34:23;23.80;1.00
9925;DHT22;5001;51.674;7.868;2022-09-09T12:36:58;23.50;1.00
9925;DHT22;5001;51.674;7.868;2022-09-09T12:39:34;23.70;1.00
9925;DHT22;5001;51.674;7.868;2022-09-09T12:42:02;23.60;1.00
9925;DHT22;5001;51.674;7.868;2022-09-09T12:44:30;23.40;1.00
9925;DHT22;5001;51.674;7.868;2022-09-09T12:47:01;23.00;1.00
9925;DHT22;5001;51.674;7.868;2022-09-09T12:49:37;22.90;1.00
9925;DHT22;5001;51.674;7.868;2022-09-09T12:52:23;22.90;1.00
9925;DHT22;5001;51.674;7.868;2022-09-09T12:54:53;23.50;1.00
9925;DHT22;5001;51.674;7.868;2022-09-09T12:57:23;23.40;1.00
9925;DHT22;5001;51.674;7.868;2022-09-09T12:59:52;23.40;1.00
9925;DHT22;5001;51.674;7.868;2022-09-09T13:02:23;23.30;1.00
9925;DHT22;5001;51.674;7.868;2022-09-09T13:04:52;23.00;1.00
9925;DHT22;5001;51.674;7.868;2022-09-09T13:07:21;22.60;1.00
9925;DHT22;5001;51.674;7.868;2022-09-09T13:09:49;22.40;1.00
9925;DHT22;5001;51.674;7.868;2022-09-09T13:12:23;22.50;1.00
9925;DHT22;5001;51.674;7.868;2022-09-09T13:14:53;22.70;1.00
9925;DHT22;5001;51.674;7.868;2022-09-09T13:17:23;22.90;1.00
9925;DHT22;5001;51.674;7.868;2022-09-09T13:19:52;23.30;1.00
9925;DHT22;5001;51.674;7.868;2022-09-09T13:22:36;23.30;1.00
9925;DHT22;5001;51.674;7.868;2022-09-09T13:27:39;23.00;1.00
9925;DHT22;5001;51.674;7.868;2022-09-09T13:30:29;22.60;1.00
9925;DHT22;5001;51.674;7.868;2022-09-09T13:33:20;22.40;1.00
9925;DHT22;5001;51.674;7.868;2022-09-09T13:36:10;22.10;1.00
9925;DHT22;5001;51.674;7.868;2022-09-09T13:41:29;21.70;11.90
9925;DHT22;5001;51.674;7.868;2022-09-09T13:43:57;22.00;31.70
9925;DHT22;5001;51.674;7.868;2022-09-09T13:46:39;22.50;47.10
9925;DHT22;5001;51.674;7.868;2022-09-09T13:51:39;22.40;26.00
9925;DHT22;5001;51.674;7.868;2022-09-09T13:54:09;22.70;10.80
9925;DHT22;5001;51.674;7.868;2022-09-09T13:56:38;23.20;10.60
9925;DHT22;5001;51.674;7.868;2022-09-09T13:59:10;23.50;1.00
9925;DHT22;5001;51.674;7.868;2022-09-09T14:01:38;23.10;1.00
9925;DHT22;5001;51.674;7.868;2022-09-09T14:04:05;22.70;1.00
9925;DHT22;5001;51.674;7.868;2022-09-09T14:06:37;22.90;1.00
9925;DHT22;5001;51.674;7.868;2022-09-09T14:09:05;22.70;1.00
9925;DHT22;5001;51.674;7.868;2022-09-09T14:11:32;22.40;1.00
9925;DHT22;5001;51.674;7.868;2022-09-09T14:13:59;22.20;1.00
9925;DHT22;5001;51.674;7.868;2022-09-09T14:16:29;21.90;45.40
9925;DHT22;5001;51.674;7.868;2022-09-09T14:18:56;22.10;99.90
9925;DHT22;5001;51.674;7.868;2022-09-09T14:21:24;22.40;93.50
9925;DHT22;5001;51.674;7.868;2022-09-09T14:23:51;22.60;45.90
9925;DHT22;5001;51.674;7.868;2022-09-09T14:26:23;22.60;54.50
9925;DHT22;5001;51.674;7.868;2022-09-09T14:28:50;22.20;50.80
9925;DHT22;5001;51.674;7.868;2022-09-09T14:31:25;22.30;61.10
9925;DHT22;5001;51.674;7.868;2022-09-09T14:33:52;22.30;56.00
9925;DHT22;5001;51.674;7.868;2022-09-09T14:36:19;22.50;52.40
9925;DHT22;5001;51.674;7.868;2022-09-09T14:38:47;22.70;47.60
9925;DHT22;5001;51.674;7.868;2022-09-09T14:41:17;23.10;27.60
9925;DHT22;5001;51.674;7.868;2022-09-09T14:43:45;23.40;44.20
9925;DHT22;5001;51.674;7.868;2022-09-09T14:46:14;23.30;25.40
9925;DHT22;5001;51.674;7.868;2022-09-09T14:48:41;23.20;18.60
9925;DHT22;5001;51.674;7.868;2022-09-09T14:51:11;23.30;9.70
9925;DHT22;5001;51.674;7.868;2022-09-09T14:53:40;22.80;1.50
9925;DHT22;5001;51.674;7.868;2022-09-09T14:56:09;22.90;7.80
9925;DHT22;5001;51.674;7.868;2022-09-09T14:58:37;22.80;19.50
9925;DHT22;5001;51.674;7.868;2022-09-09T15:01:09;22.50;17.30
9925;DHT22;5001;51.674;7.868;2022-09-09T15:03:38;22.20;17.40
9925;DHT22;5001;51.674;7.868;2022-09-09T15:06:16;22.30;43.60
9925;DHT22;5001;51.674;7.868;2022-09-09T15:08:44;22.30;32.10
9925;DHT22;5001;51.674;7.868;2022-09-09T15:11:13;21.70;30.60
9925;DHT22;5001;51.674;7.868;2022-09-09T15:13:43;21.40;33.50
9925;DHT22;5001;51.674;7.868;2022-09-09T15:16:15;21.50;47.50
9925;DHT22;5001;51.674;7.868;2022-09-09T15:18:43;21.40;43.40
9925;DHT22;5001;51.674;7.868;2022-09-09T15:21:12;21.40;31.30
9925;DHT22;5001;51.674;7.868;2022-09-09T15:23:39;21.40;17.10
9925;DHT22;5001;51.674;7.868;2022-09-09T15:26:07;21.50;27.30
9925;DHT22;5001;51.674;7.868;2022-09-09T15:28:36;21.60;2.50
9925;DHT22;5001;51.674;7.868;2022-09-09T15:31:15;21.80;1.00
9925;DHT22;5001;51.674;7.868;2022-09-09T15:33:55;22.20;1.00
9925;DHT22;5001;51.674;7.868;2022-09-09T15:39:05;22.40;1.00
9925;DHT22;5001;51.674;7.868;2022-09-09T15:41:33;22.50;1.00
9925;DHT22;5001;51.674;7.868;2022-09-09T15:44:00;22.20;1.00
9925;DHT22;5001;51.674;7.868;2022-09-09T15:46:33;21.80;1.00
9925;DHT22;5001;51.674;7.868;2022-09-09T15:51:38;21.30;1.00
9925;DHT22;5001;51.674;7.868;2022-09-09T15:54:11;21.00;16.20
9925;DHT22;5001;51.674;7.868;2022-09-09T15:56:39;21.10;37.10
9925;DHT22;5001;51.674;7.868;2022-09-09T15:59:07;21.00;44.70
9925;DHT22;5001;51.674;7.868;2022-09-09T16:01:35;20.60;57.40
9925;DHT22;5001;51.674;7.868;2022-09-09T16:04:03;20.40;93.30
9925;DHT22;5001;51.674;7.868;2022-09-09T16:06:30;20.40;99.90
9925;DHT22;5001;51.674;7.868;2022-09-09T16:08:58;20.40;99.90
9925;DHT22;5001;51.674;7.868;2022-09-09T16:11:33;20.50;99.90
9925;DHT22;5001;51.674;7.868;2022-09-09T16:14:03;20.20;99.90
9925;DHT22;5001;51.674;7.868;2022-09-09T16:16:32;20.20;99.90
9925;DHT22;5001;51.674;7.868;2022-09-09T16:19:03;20.10;99.90
9925;DHT22;5001;51.674;7.868;2022-09-09T16:21:46;20.00;99.90
9925;DHT22;5001;51.674;7.868;2022-09-09T16:24:16;19.80;99.90
9925;DHT22;5001;51.674;7.868;2022-09-09T16:26:48;19.80;99.90
9925;DHT22;5001;51.674;7.868;2022-09-09T16:29:16;19.40;1.00
9925;DHT22;5001;51.674;7.868;2022-09-09T16:31:45;19.10;1.00
9925;DHT22;5001;51.674;7.868;2022-09-09T16:34:14;19.20;1.00
9925;DHT22;5001;51.674;7.868;2022-09-09T16:36:43;19.40;1.00
9925;DHT22;5001;51.674;7.868;2022-09-09T16:39:15;19.60;1.00
9925;DHT22;5001;51.674;7.868;2022-09-09T16:41:44;19.40;1.00
9925;DHT22;5001;51.674;7.868;2022-09-09T16:44:13;19.60;1.00
9925;DHT22;5001;51.674;7.868;2022-09-09T16:46:41;19.30;1.00
9925;DHT22;5001;51.674;7.868;2022-09-09T16:49:11;18.90;1.00
9925;DHT22;5001;51.674;7.868;2022-09-09T16:51:46;18.80;1.00
9925;DHT22;5001;51.674;7.868;2022-09-09T16:54:15;18.80;99.90
9925;DHT22;5001;51.674;7.868;2022-09-09T16:56:45;18.90;62.90
9925;DHT22;5001;51.674;7.868;2022-09-09T16:59:15;19.10;1.00
9925;DHT22;5001;51.674;7.868;2022-09-09T17:01:43;19.00;14.70
9925;DHT22;5001;51.674;7.868;2022-09-09T17:04:13;18.60;99.90
9925;DHT22;5001;51.674;7.868;2022-09-09T17:06:46;18.20;99.90
9925;DHT22;5001;51.674;7.868;2022-09-09T17:09:13;18.00;99.90
9925;DHT22;5001;51.674;7.868;2022-09-09T17:11:41;17.90;1.00
9925;DHT22;5001;51.674;7.868;2022-09-09T17:14:13;17.60;1.00
9925;DHT22;5001;51.674;7.868;2022-09-09T17:16:40;17.10;99.90
9925;DHT22;5001;51.674;7.868;2022-09-09T17:19:07;17.20;1.00
9925;DHT22;5001;51.674;7.868;2022-09-09T17:21:36;17.30;1.00
9925;DHT22;5001;51.674;7.868;2022-09-09T17:24:23;17.10;32.50
9925;DHT22;5001;51.674;7.868;2022-09-09T17:26:50;17.20;1.00
9925;DHT22;5001;51.674;7.868;2022-09-09T17:29:17;17.30;1.00
9925;DHT22;5001;51.674;7.868;2022-09-09T17:31:44;17.20;1.00
9925;DHT22;5001;51.674;7.868;2022-09-09T17:34:11;17.20;1.00
9925;DHT22;5001;51.674;7.868;2022-09-09T17:36:38;17.00;1.00
9925;DHT22;5001;51.674;7.868;2022-09-09T17:39:06;17.00;1.00
9925;DHT22;5001;51.674;7.868;2022-09-09T17:41:36;16.90;1.00
9925;DHT22;5001;51.674;7.868;2022-09-09T17:44:04;16.80;1.00
9925;DHT22;5001;51.674;7.868;2022-09-09T17:46:36;16.90;1.00
9925;DHT22;5001;51.674;7.868;2022-09-09T17:49:07;16.90;1.00
9925;DHT22;5001;51.674;7.868;2022-09-09T17:51:36;16.70;1.00
9925;DHT22;5001;51.674;7.868;2022-09-09T17:54:06;16.70;1.00
9925;DHT22;5001;51.674;7.868;2022-09-09T17:56:35;16.80;1.00
9925;DHT22;5001;51.674;7.868;2022-09-09T17:59:03;16.70;1.00
9925;DHT22;5001;51.674;7.868;2022-09-09T18:01:34;16.80;1.00
9925;DHT22;5001;51.674;7.868;2022-09-09T18:04:04;16.80;1.00
9925;DHT22;5001;51.674;7.868;2022-09-09T18:06:37;16.60;1.00
9925;DHT22;5001;51.674;7.868;2022-09-09T18:09:09;16.40;19.90
9925;DHT22;5001;51.674;7.868;2022-09-09T18:11:39;16.40;99.90
9925;DHT22;5001;51.674;7.868;2022-09-09T18:14:11;16.40;99.90
9925;DHT22;5001;51.674;7.868;2022-09-09T18:16:39;16.40;99.90
9925;DHT22;5001;51.674;7.868;2022-09-09T18:19:08;16.40;99.90
9925;DHT22;5001;51.674;7.868;2022-09-09T18:21:40;16.40;99.90
9925;DHT22;5001;51.674;7.868;2022-09-09T18:24:08;16.40;99.90
9925;DHT22;5001;51.674;7.868;2022-09-09T18:26:38;16.30;99.90
9925;DHT22;5001;51.674;7.868;2022-09-09T18:29:08;16.20;99.90
9925;DHT22;5001;51.674;7.868;2022-09-09T18:31:37;16.30;99.90
9925;DHT22;5001;51.674;7.868;2022-09-09T18:34:06;16.30;99.90
9925;DHT22;5001;51.674;7.868;2022-09-09T18:36:38;16.30;1.00
9925;DHT22;5001;51.674;7.868;2022-09-09T18:39:06;16.30;1.00
9925;DHT22;5001;51.674;7.868;2022-09-09T18:41:36;16.30;1.00
9925;DHT22;5001;51.674;7.868;2022-09-09T18:44:06;16.40;1.00
9925;DHT22;5001;51.674;7.868;2022-09-09T18:46:36;16.40;1.00
9925;DHT22;5001;51.674;7.868;2022-09-09T18:49:03;16.40;1.00
9925;DHT22;5001;51.674;7.868;2022-09-09T18:51:32;16.30;1.00
9925;DHT22;5001;51.674;7.868;2022-09-09T18:54:06;16.30;1.00
9925;DHT22;5001;51.674;7.868;2022-09-09T18:56:35;16.40;1.00
9925;DHT22;5001;51.674;7.868;2022-09-09T18:59:04;16.30;1.00
9925;DHT22;5001;51.674;7.868;2022-09-09T19:01:32;16.20;1.00
9925;DHT22;5001;51.674;7.868;2022-09-09T19:04:03;16.30;1.00
9925;DHT22;5001;51.674;7.868;2022-09-09T19:06:31;16.20;1.00
9925;DHT22;5001;51.674;7.868;2022-09-09T19:08:58;16.20;1.00
9925;DHT22;5001;51.674;7.868;2022-09-09T19:11:30;16.20;1.00
9925;DHT22;5001;51.674;7.868;2022-09-09T19:14:02;16.10;1.00
9925;DHT22;5001;51.674;7.868;2022-09-09T19:16:31;16.10;1.00